Aeroporto :
LOGIN :

Iscrizione | Disclaimer

   EN    FR    IT 

 










Sommario :    VFR   VFR Marginale   IFR   IFR Intensivo   IFR Molto Intensivo
Visibilità : 
Base nubi : 
>= 8 km
>= 3000ft
5 / 8 km
1000 / 3000 ft
1500m / 5 km
500 / 1000 ft
800 / 1500m
200 / 500 ft
< 800m
< 200 ft
Simboli :   Temporali  Nebbia  Neve Forte  Precipitazioni Forti  Vento > 20 kt
SIGMETs :   Varie  Temporali  Ghiacco  Turbolenza  Onda orograficha  Ceneri Vulcaniche






- Altitudine del aeroporto : 1516 ft
- Codice IATA : AGB


EDMA - Augsburg

ULTIMO METAR :
  • 090850Z 24006KT 210V280 CAVOK 23/13 Q1019

METARs OBSOLETI :
  • 090820Z 23006KT 200V260 CAVOK 23/14 Q1019
  • 090750Z 24006KT CAVOK 22/13 Q1019
  • 090720Z 23007KT CAVOK 21/13 Q1019
  • 090650Z 23007KT CAVOK 20/13 Q1019
  • 090620Z VRB02KT CAVOK 20/14 Q1019

TAF TAF EDMA
Valido dal 09 a 09 ore il 09 a 18 ore UTC


090800Z 0909/0918 25010KT CAVOK
BECMG 0917/0918 26005KT



MetMap, La meteo Aeronautica in un colpo d'occhio ! - Copyright ORBIFLY Dicembre 2007 - Disclaimer

ORBIFLY MET'MAP TEAM :

Programmazione e sviluppo : Alexandra Zaïnal
Concezione : Baudouin d'Aumeries
Aiuto per la programmazione : Marc-Olivier Méhu
Supporto tecnico e logistico : Manuel Goepfert
Aiuto per la traduzione : Arnaldo La Scala

Contatto : metmap@orbifly.com




FONTI E CREDITI :

   NOAA